world map with KBIJ marked

KBIJ - Airport

This information may not be accurate or current and is not valid for navigation or flight planning. No warranty of fitness for any purpose is made or implied.

flag of Georgiaflag of United States

Donate via PayPal

Additional information is available on the NEW Great Circle Mapper

Location
City:  Blakely, Georgia, United States
Name:Early County Airport
ICAO:KBIJ
FAA:BIJ

Details
Type:Airport (Airfield)
Use:Public/Civil
Latitude:31°23'51"N (31.397509)
Longitude:84°53'41"W (-84.894797)
Datum:WGS 1984
Elevation:214 ft (65 m)
Runways:1
Longest:5494 × 98 ft (1675 × 30 m)

Time
Timezone:UTC+29:08 (DST+32:08)
Local Time:

Weather
METAR:KBIJ  041415Z AUTO 00000KT 2SM BR OVC002 10/10 A3011 RMK AO2

Related Locations
Nearby:
Farthest:USL: 11279 mi / 18152 km
Useless Loop, WA, AU

Find:

   beyond  
but within

Other Information
Maps:
Links:
Sources:

  

Sectional Chart

Flight Planning
at skyvector.com

 


Great Circle Mapper   Great Circle Mapper
Great Circle Mapper FAQ   Great Circle Mapper FAQ
  Karl's Home Page
KLSē   KLSē Home
   GC on Facebook
Airlines of the World   Airlines of the World
Donate via PayPal


Copyright © 2004-2020, Karl L. Swartz. All rights reserved.
All trademarks mentioned herein belong to their respective owners.

Please see credits for attribution and copyright information.

Karl Swartz <karl@kls2.com>
  Powered by FreeBSD
Valid HTML 4.01!
Labeled with ICRA
hCard Microformat
Geo Microformat